createdAt,value
2022-09-22T00:02:19.958Z,58.43
2022-09-22T00:04:46.736Z,58.76
2022-09-22T00:09:40.352Z,59.18
2022-09-22T00:12:07.311Z,58.83
2022-09-22T00:14:34.336Z,59.03
2022-09-22T00:17:02.162Z,58.97
2022-09-22T00:19:30.885Z,59.22
2022-09-22T00:21:57.961Z,59.31
2022-09-22T00:24:26.292Z,59.32
2022-09-22T00:26:57.738Z,59.59
2022-09-22T00:31:52.400Z,59.78
2022-09-22T00:34:20.232Z,59.74
2022-09-22T00:36:47.550Z,59.97
2022-09-22T00:39:15.093Z,59.91
2022-09-22T00:41:42.282Z,59.97
2022-09-22T00:44:19.131Z,60.40
2022-09-22T00:46:47.975Z,60.37
2022-09-22T00:49:15.740Z,60.08
2022-09-22T00:51:43.837Z,60.11
2022-09-22T00:54:14.493Z,60.10
2022-09-22T00:56:47.393Z,60.44
2022-09-22T00:59:17.046Z,60.38
2022-09-22T01:01:44.073Z,60.21
2022-09-22T01:04:11.241Z,60.28
2022-09-22T01:06:39.956Z,60.06
2022-09-22T01:09:07.428Z,60.47
2022-09-22T01:11:34.613Z,60.05
2022-09-22T01:14:09.034Z,60.47
2022-09-22T01:16:36.232Z,60.29
2022-09-22T01:19:02.921Z,60.01
2022-09-22T01:21:32.532Z,60.04
2022-09-22T01:24:15.144Z,60.10
2022-09-22T01:26:51.593Z,60.61
2022-09-22T01:29:27.724Z,60.60
2022-09-22T01:32:02.982Z,60.40
2022-09-22T01:37:15.075Z,60.43
2022-09-22T01:39:46.603Z,60.26
2022-09-22T01:42:23.987Z,60.16
2022-09-22T01:44:50.964Z,60.51
2022-09-22T01:47:27.422Z,60.36
2022-09-22T01:49:57.789Z,60.48
2022-09-22T01:52:27.914Z,60.47
2022-09-22T01:54:58.543Z,60.51
2022-09-22T01:57:30.723Z,60.51
2022-09-22T02:00:00.233Z,60.42
2022-09-22T02:02:31.605Z,60.46
2022-09-22T02:05:05.931Z,60.65
2022-09-22T02:07:34.302Z,60.88
2022-09-22T02:15:00.233Z,60.73
2022-09-22T02:17:32.990Z,61.41
2022-09-22T02:20:05.758Z,61.08
2022-09-22T02:22:33.823Z,61.13
2022-09-22T02:25:00.613Z,61.45
2022-09-22T02:27:36.771Z,60.99
2022-09-22T02:32:32.049Z,61.35
2022-09-22T02:34:58.884Z,61.34
2022-09-22T02:37:35.515Z,61.42
2022-09-22T02:40:11.854Z,60.99
2022-09-22T02:42:42.044Z,61.67
2022-09-22T02:45:13.739Z,61.33
2022-09-22T02:47:43.876Z,61.56
2022-09-22T02:50:12.508Z,61.30
2022-09-22T02:52:40.110Z,61.22
2022-09-22T02:55:07.828Z,61.27
2022-09-22T02:57:34.863Z,61.17
2022-09-22T03:00:01.975Z,61.41
2022-09-22T03:02:28.779Z,61.50
2022-09-22T03:07:22.250Z,61.62
2022-09-22T03:09:49.140Z,61.41
2022-09-22T03:12:15.770Z,61.74
2022-09-22T03:14:42.380Z,61.52
2022-09-22T03:17:09.177Z,62.08
2022-09-22T03:19:36.012Z,62.07
2022-09-22T03:22:02.794Z,61.91
2022-09-22T03:26:55.156Z,62.33
2022-09-22T03:29:21.964Z,62.42
2022-09-22T03:31:48.867Z,62.47
2022-09-22T03:34:15.743Z,62.77
2022-09-22T03:36:42.590Z,62.61
2022-09-22T03:39:09.356Z,62.42
2022-09-22T03:41:36.200Z,62.94
2022-09-22T03:44:03.406Z,62.71
2022-09-22T03:46:30.621Z,62.74
2022-09-22T03:48:57.280Z,62.92
2022-09-22T03:51:23.965Z,63.07
2022-09-22T03:53:50.784Z,62.99
2022-09-22T03:56:17.732Z,62.81
2022-09-22T04:01:11.666Z,62.60
2022-09-22T04:03:38.940Z,62.63
2022-09-22T04:06:05.784Z,62.86
2022-09-22T04:08:32.353Z,62.73
2022-09-22T04:11:00.200Z,62.95
2022-09-22T04:13:26.815Z,62.61
2022-09-22T04:15:53.476Z,62.36
2022-09-22T04:18:20.150Z,62.80
2022-09-22T04:20:46.749Z,62.47
2022-09-22T04:23:14.209Z,62.62
2022-09-22T04:25:41.284Z,62.52
2022-09-22T04:28:08.200Z,62.69
2022-09-22T04:30:35.352Z,62.29
2022-09-22T04:33:02.074Z,62.69
2022-09-22T04:35:29.072Z,62.15
2022-09-22T04:37:56.641Z,62.24
2022-09-22T04:40:23.593Z,62.40
2022-09-22T04:42:50.784Z,62.15
2022-09-22T04:47:46.895Z,62.29
2022-09-22T04:50:13.963Z,62.59
2022-09-22T04:52:41.146Z,62.34
2022-09-22T04:57:34.074Z,62.80
2022-09-22T05:00:00.925Z,62.80
2022-09-22T05:02:27.704Z,62.58
2022-09-22T05:04:54.456Z,62.86
2022-09-22T05:07:21.294Z,62.74
2022-09-22T05:09:48.277Z,62.33
2022-09-22T05:12:14.970Z,62.83
2022-09-22T05:14:42.592Z,62.83
2022-09-22T05:17:09.896Z,62.74
2022-09-22T05:19:36.635Z,62.61
2022-09-22T05:22:03.464Z,62.96
2022-09-22T05:24:30.570Z,62.96
2022-09-22T05:26:57.190Z,62.51
2022-09-22T05:29:27.814Z,62.83
2022-09-22T05:31:55.330Z,62.53
2022-09-22T05:34:22.034Z,62.48
2022-09-22T05:36:48.694Z,62.71
2022-09-22T05:39:15.504Z,62.51
2022-09-22T05:41:42.406Z,62.59
2022-09-22T05:44:09.421Z,62.91
2022-09-22T05:46:36.086Z,62.51
2022-09-22T05:49:02.746Z,62.49
2022-09-22T05:51:29.477Z,62.37
2022-09-22T05:53:56.474Z,62.62
2022-09-22T05:56:23.410Z,62.49
2022-09-22T05:58:50.179Z,62.41
2022-09-22T06:01:17.023Z,62.78
2022-09-22T06:03:44.020Z,62.28
2022-09-22T06:06:11.014Z,62.72
2022-09-22T06:08:38.454Z,63.05
2022-09-22T06:11:05.398Z,62.94
2022-09-22T06:13:32.179Z,63.19
2022-09-22T06:16:01.282Z,63.27
2022-09-22T06:18:28.360Z,63.51
2022-09-22T06:20:56.386Z,64.12
2022-09-22T06:23:23.274Z,63.41
2022-09-22T06:25:50.287Z,63.75
2022-09-22T06:28:17.197Z,63.53
2022-09-22T06:30:44.000Z,63.32
2022-09-22T06:33:11.507Z,63.12
2022-09-22T06:35:40.746Z,63.06
2022-09-22T06:38:08.177Z,61.78
2022-09-22T06:40:36.820Z,61.34
2022-09-22T06:43:07.902Z,60.37
2022-09-22T06:45:34.929Z,60.37
2022-09-22T06:48:05.232Z,60.04
2022-09-22T06:53:01.957Z,59.21
2022-09-22T06:55:32.993Z,59.22
2022-09-22T07:00:31.988Z,59.05
2022-09-22T07:03:02.749Z,55.98
2022-09-22T07:05:29.426Z,54.98
2022-09-22T07:07:56.130Z,54.61
2022-09-22T07:10:23.050Z,54.12
2022-09-22T07:12:49.690Z,53.95
2022-09-22T07:17:43.125Z,54.09
2022-09-22T07:20:10.189Z,54.61
2022-09-22T07:22:39.677Z,55.36
2022-09-22T07:25:08.924Z,55.58
2022-09-22T07:27:35.714Z,56.34
2022-09-22T07:30:03.641Z,55.88
2022-09-22T07:34:58.294Z,56.47
2022-09-22T07:37:25.059Z,56.12
2022-09-22T07:39:52.136Z,56.20
2022-09-22T07:44:55.346Z,56.32
2022-09-22T07:47:41.989Z,56.71
2022-09-22T07:50:09.126Z,56.57
2022-09-22T07:52:35.944Z,56.25
2022-09-22T07:55:02.650Z,56.37
2022-09-22T07:57:32.509Z,56.47
2022-09-22T07:59:59.741Z,56.64
2022-09-22T08:02:29.029Z,56.52
2022-09-22T08:05:02.785Z,56.55
2022-09-22T08:07:31.794Z,56.33
2022-09-22T08:09:58.680Z,56.42
2022-09-22T08:12:25.909Z,56.22
2022-09-22T08:14:53.689Z,56.37
2022-09-22T08:17:20.640Z,56.48
2022-09-22T08:19:47.330Z,56.48
2022-09-22T08:22:14.522Z,56.47
2022-09-22T08:24:41.964Z,56.39
2022-09-22T08:27:09.204Z,56.64
2022-09-22T08:29:36.752Z,56.47
2022-09-22T08:32:03.852Z,56.73
2022-09-22T08:34:31.162Z,56.36
2022-09-22T08:44:26.625Z,56.54
2022-09-22T08:46:55.284Z,56.33
2022-09-22T08:49:28.439Z,56.52
2022-09-22T08:59:30.029Z,56.61
2022-09-22T09:01:57.546Z,56.49
2022-09-22T09:04:28.337Z,56.28
2022-09-22T09:06:57.072Z,56.31
2022-09-22T09:09:24.370Z,56.27
2022-09-22T09:11:54.594Z,56.35
2022-09-22T09:16:53.234Z,56.29
2022-09-22T09:19:25.078Z,55.91
2022-09-22T09:21:54.051Z,56.18
2022-09-22T09:27:13.577Z,56.03
2022-09-22T09:29:45.317Z,55.99
2022-09-22T09:32:15.090Z,56.06
2022-09-22T09:34:43.296Z,55.89
2022-09-22T09:37:14.361Z,56.09
2022-09-22T09:39:42.848Z,55.99
2022-09-22T09:47:12.118Z,55.84
2022-09-22T09:49:39.178Z,55.60
2022-09-22T09:52:07.326Z,56.01
2022-09-22T09:54:34.917Z,55.82
2022-09-22T09:57:05.282Z,55.57
2022-09-22T09:59:35.390Z,55.87
2022-09-22T10:02:02.537Z,55.65
2022-09-22T10:07:02.367Z,55.73
2022-09-22T10:09:30.034Z,55.71
2022-09-22T10:11:57.561Z,55.63
2022-09-22T10:14:28.021Z,55.48
2022-09-22T10:16:55.077Z,55.44
2022-09-22T10:19:23.520Z,55.39
2022-09-22T10:21:50.745Z,55.66
2022-09-22T10:26:55.478Z,55.40
2022-09-22T10:29:22.993Z,55.25
2022-09-22T10:31:54.682Z,55.21
2022-09-22T10:34:24.665Z,55.02
2022-09-22T10:36:51.712Z,55.12
2022-09-22T10:39:19.128Z,54.86
2022-09-22T10:41:47.873Z,55.16
2022-09-22T10:47:06.825Z,54.79
2022-09-22T10:49:36.762Z,55.09
2022-09-22T10:52:04.035Z,54.52
2022-09-22T10:57:09.852Z,54.64
2022-09-22T10:59:40.192Z,55.04
2022-09-22T11:02:22.188Z,54.98
2022-09-22T11:07:19.774Z,54.73
2022-09-22T11:12:28.597Z,54.71
2022-09-22T11:15:00.117Z,54.80
2022-09-22T11:17:27.186Z,54.72
2022-09-22T11:19:57.633Z,55.02
2022-09-22T11:22:27.798Z,54.60
2022-09-22T11:24:55.318Z,54.72
2022-09-22T11:27:29.877Z,54.73
2022-09-22T11:29:57.393Z,54.43
2022-09-22T11:32:27.661Z,54.72
2022-09-22T11:34:57.777Z,54.67
2022-09-22T11:37:26.363Z,55.05
2022-09-22T11:39:56.580Z,54.65
2022-09-22T11:42:31.173Z,54.61
2022-09-22T11:47:33.367Z,54.22
2022-09-22T11:50:05.440Z,54.40
2022-09-22T11:52:35.558Z,54.61
2022-09-22T11:57:35.409Z,54.46
2022-09-22T12:02:31.532Z,54.19
2022-09-22T12:05:00.925Z,54.03
2022-09-22T12:07:31.905Z,54.25
2022-09-22T12:10:02.578Z,54.19
2022-09-22T12:12:32.036Z,54.24
2022-09-22T12:15:02.156Z,54.21
2022-09-22T12:17:37.153Z,54.19
2022-09-22T12:20:11.369Z,54.32
2022-09-22T12:22:41.527Z,53.79
2022-09-22T12:25:21.182Z,54.23
2022-09-22T12:27:58.986Z,53.77
2022-09-22T12:30:26.049Z,53.75
2022-09-22T12:32:53.328Z,53.75
2022-09-22T12:35:28.717Z,53.90
2022-09-22T12:38:01.230Z,53.84
2022-09-22T12:40:29.948Z,53.59
2022-09-22T12:42:57.923Z,53.96
2022-09-22T12:45:34.155Z,53.91
2022-09-22T12:48:03.916Z,53.88
2022-09-22T12:50:37.324Z,53.82
2022-09-22T12:53:05.567Z,54.05
2022-09-22T12:55:43.624Z,53.90
2022-09-22T12:58:20.561Z,53.74
2022-09-22T13:00:50.198Z,53.82
2022-09-22T13:03:26.666Z,53.53
2022-09-22T13:05:56.095Z,54.05
2022-09-22T13:08:27.409Z,53.99
2022-09-22T13:10:57.653Z,54.00
2022-09-22T13:13:33.831Z,53.60
2022-09-22T13:16:02.131Z,53.70
2022-09-22T13:18:29.896Z,53.77
2022-09-22T13:20:58.245Z,53.87
2022-09-22T13:23:25.163Z,53.78
2022-09-22T13:25:52.848Z,54.00
2022-09-22T13:28:23.835Z,54.01
2022-09-22T13:31:03.562Z,53.67
2022-09-22T13:33:34.336Z,53.54
2022-09-22T13:36:04.161Z,53.76
2022-09-22T13:38:33.497Z,53.71
2022-09-22T13:41:00.828Z,53.67
2022-09-22T13:43:31.247Z,53.71
2022-09-22T13:45:59.619Z,53.56
2022-09-22T13:48:28.765Z,53.95
2022-09-22T13:50:58.361Z,53.59
2022-09-22T13:53:25.500Z,53.75
2022-09-22T13:55:54.055Z,53.62
2022-09-22T13:58:29.884Z,54.04
2022-09-22T14:01:13.017Z,53.69
2022-09-22T14:03:40.283Z,53.88
2022-09-22T14:06:11.014Z,53.63
2022-09-22T14:08:38.451Z,53.67
2022-09-22T14:11:07.023Z,54.02
2022-09-22T14:13:41.246Z,53.75
2022-09-22T14:16:08.701Z,53.68
2022-09-22T14:18:38.895Z,54.01
2022-09-22T14:21:08.883Z,54.04
2022-09-22T14:23:36.137Z,53.96
2022-09-22T14:26:15.349Z,53.71
2022-09-22T14:28:42.486Z,54.00
2022-09-22T14:31:13.446Z,54.30
2022-09-22T14:33:41.400Z,54.31
2022-09-22T14:36:15.235Z,53.77
2022-09-22T14:38:47.864Z,54.20
2022-09-22T14:41:23.657Z,53.81
2022-09-22T14:43:51.454Z,54.14
2022-09-22T14:46:23.303Z,54.18
2022-09-22T14:48:50.974Z,53.74
2022-09-22T14:51:21.006Z,53.67
2022-09-22T14:53:52.103Z,54.21
2022-09-22T14:56:23.311Z,54.08
2022-09-22T14:58:51.485Z,53.64
2022-09-22T15:01:31.705Z,54.10
2022-09-22T15:04:02.139Z,54.10
2022-09-22T15:06:40.927Z,54.05
2022-09-22T15:09:09.138Z,53.73
2022-09-22T15:11:45.934Z,53.94
2022-09-22T15:14:23.061Z,53.71
2022-09-22T15:16:52.607Z,53.82
2022-09-22T15:19:22.349Z,53.93
2022-09-22T15:21:51.961Z,53.73
2022-09-22T15:24:25.590Z,53.83
2022-09-22T15:26:53.080Z,53.68
2022-09-22T15:29:20.658Z,53.94
2022-09-22T15:31:51.044Z,53.78
2022-09-22T15:34:18.345Z,53.80
2022-09-22T15:36:47.490Z,53.72
2022-09-22T15:39:19.989Z,54.18
2022-09-22T15:41:50.541Z,53.98
2022-09-22T15:44:18.070Z,53.75
2022-09-22T15:46:46.607Z,54.01
2022-09-22T15:49:15.576Z,54.17
2022-09-22T15:51:42.697Z,53.85
2022-09-22T15:54:14.329Z,53.79
2022-09-22T15:56:42.294Z,54.30
2022-09-22T15:59:16.536Z,54.24
2022-09-22T16:01:44.765Z,53.89
2022-09-22T16:04:13.211Z,54.06
2022-09-22T16:06:42.070Z,54.07
2022-09-22T16:09:16.860Z,54.33
2022-09-22T16:11:44.654Z,54.21
2022-09-22T16:14:12.236Z,53.98
2022-09-22T16:16:39.543Z,54.01
2022-09-22T16:19:10.700Z,54.13
2022-09-22T16:21:40.929Z,54.46
2022-09-22T16:24:09.806Z,54.39
2022-09-22T16:26:38.247Z,54.44
2022-09-22T16:29:06.355Z,54.53
2022-09-22T16:31:34.340Z,54.24
2022-09-22T16:34:02.647Z,54.29
2022-09-22T16:36:31.932Z,54.08
2022-09-22T16:38:59.736Z,54.30
2022-09-22T16:41:30.244Z,54.59
2022-09-22T16:43:58.088Z,54.52
2022-09-22T16:46:27.740Z,54.30
2022-09-22T16:48:56.025Z,54.52
2022-09-22T16:51:29.046Z,54.34
2022-09-22T16:53:57.865Z,54.31
2022-09-22T16:56:26.792Z,54.04
2022-09-22T16:58:54.261Z,54.19
2022-09-22T17:01:22.830Z,54.39
2022-09-22T17:03:51.289Z,54.25
2022-09-22T17:06:19.775Z,54.61
2022-09-22T17:08:47.210Z,54.58
2022-09-22T17:11:15.388Z,54.24
2022-09-22T17:13:44.930Z,54.62
2022-09-22T17:16:22.616Z,54.55
2022-09-22T17:18:52.893Z,54.33
2022-09-22T17:21:24.016Z,54.35
2022-09-22T17:23:51.979Z,54.28
2022-09-22T17:26:20.023Z,54.24
2022-09-22T17:28:48.095Z,54.19
2022-09-22T17:31:16.805Z,54.57
2022-09-22T17:33:51.267Z,54.24
2022-09-22T17:36:20.952Z,54.76
2022-09-22T17:38:49.510Z,54.63
2022-09-22T17:41:20.609Z,54.20
2022-09-22T17:43:52.405Z,54.13
2022-09-22T17:46:20.175Z,54.43
2022-09-22T17:48:56.920Z,54.54
2022-09-22T17:51:43.850Z,54.27
2022-09-22T17:54:27.572Z,54.48
2022-09-22T17:56:54.720Z,54.62
2022-09-22T17:59:22.719Z,54.39
2022-09-22T18:01:53.495Z,54.33
2022-09-22T18:04:20.891Z,54.33
2022-09-22T18:06:49.671Z,54.57
2022-09-22T18:09:16.610Z,54.28
2022-09-22T18:11:44.982Z,54.54
2022-09-22T18:14:12.486Z,54.54
2022-09-22T18:16:39.671Z,54.74
2022-09-22T18:19:07.220Z,54.36
2022-09-22T18:21:34.454Z,54.23
2022-09-22T18:24:01.892Z,54.40
2022-09-22T18:26:38.553Z,54.65
2022-09-22T18:29:10.606Z,54.24
2022-09-22T18:31:38.864Z,54.24
2022-09-22T18:34:07.832Z,54.42
2022-09-22T18:36:35.960Z,54.00
2022-09-22T18:39:03.397Z,54.11
2022-09-22T18:41:31.340Z,53.82
2022-09-22T18:43:58.448Z,53.74
2022-09-22T18:46:25.977Z,54.01
2022-09-22T18:49:05.616Z,53.92
2022-09-22T18:51:32.931Z,53.75
2022-09-22T18:54:01.686Z,53.65
2022-09-22T18:56:28.843Z,53.85
2022-09-22T18:58:56.121Z,53.69
2022-09-22T19:01:24.177Z,53.35
2022-09-22T19:03:52.147Z,53.82
2022-09-22T19:06:20.924Z,53.91
2022-09-22T19:08:49.169Z,53.46
2022-09-22T19:11:17.500Z,53.90
2022-09-22T19:13:44.729Z,53.67
2022-09-22T19:16:13.387Z,53.89
2022-09-22T19:18:41.986Z,53.99
2022-09-22T19:21:14.365Z,53.91
2022-09-22T19:23:42.139Z,53.93
2022-09-22T19:26:11.010Z,54.17
2022-09-22T19:28:38.044Z,54.04
2022-09-22T19:31:05.233Z,54.31
2022-09-22T19:33:31.960Z,53.93
2022-09-22T19:35:59.376Z,54.00
2022-09-22T19:38:26.266Z,54.13
2022-09-22T19:40:56.535Z,54.43
2022-09-22T19:43:24.931Z,54.52
2022-09-22T19:45:52.738Z,54.39
2022-09-22T19:48:19.700Z,54.67
2022-09-22T19:50:47.620Z,54.53
2022-09-22T19:53:15.002Z,54.73
2022-09-22T19:55:41.857Z,54.37
2022-09-22T19:58:08.574Z,54.76
2022-09-22T20:00:36.585Z,54.86
2022-09-22T20:03:03.575Z,55.00
2022-09-22T20:05:33.924Z,54.95
2022-09-22T20:08:01.684Z,54.62
2022-09-22T20:10:28.761Z,55.07
2022-09-22T20:12:55.577Z,55.06
2022-09-22T20:15:22.353Z,54.76
2022-09-22T20:17:49.490Z,55.01
2022-09-22T20:20:17.473Z,55.07
2022-09-22T20:22:45.646Z,55.21
2022-09-22T20:25:20.386Z,55.14
2022-09-22T20:27:48.270Z,55.42
2022-09-22T20:30:16.617Z,55.15
2022-09-22T20:32:43.723Z,55.45
2022-09-22T20:35:12.149Z,55.16
2022-09-22T20:37:39.646Z,55.48
2022-09-22T20:40:11.130Z,55.47
2022-09-22T20:42:38.236Z,55.43
2022-09-22T20:45:06.080Z,55.29
2022-09-22T20:47:33.360Z,55.36
2022-09-22T20:50:00.099Z,55.94
2022-09-22T20:52:26.799Z,55.86
2022-09-22T20:54:53.445Z,55.41
2022-09-22T20:57:20.200Z,55.69
2022-09-22T20:59:47.839Z,55.95
2022-09-22T21:02:15.416Z,55.77
2022-09-22T21:04:42.252Z,56.10
2022-09-22T21:07:09.387Z,55.76
2022-09-22T21:09:45.589Z,56.22
2022-09-22T21:12:13.746Z,55.97
2022-09-22T21:14:42.385Z,56.02
2022-09-22T21:17:09.111Z,56.23
2022-09-22T21:19:36.905Z,56.36
2022-09-22T21:22:05.246Z,56.38
2022-09-22T21:24:32.988Z,56.01
2022-09-22T21:27:00.018Z,56.57
2022-09-22T21:29:26.736Z,56.34
2022-09-22T21:31:53.580Z,56.78
2022-09-22T21:34:20.439Z,56.45
2022-09-22T21:36:47.389Z,56.47
2022-09-22T21:39:14.104Z,56.36
2022-09-22T21:41:40.815Z,56.74
2022-09-22T21:44:07.769Z,56.58
2022-09-22T21:46:40.572Z,56.64
2022-09-22T21:49:07.759Z,56.87
2022-09-22T21:51:35.791Z,56.75
2022-09-22T21:54:03.798Z,57.01
2022-09-22T21:56:31.224Z,56.87
2022-09-22T21:58:58.094Z,57.18
2022-09-22T22:01:26.721Z,56.78
2022-09-22T22:03:54.259Z,57.26
2022-09-22T22:06:21.228Z,56.94
2022-09-22T22:08:48.279Z,57.32
2022-09-22T22:11:16.429Z,57.20
2022-09-22T22:13:45.373Z,57.50
2022-09-22T22:16:12.469Z,57.39
2022-09-22T22:18:39.969Z,57.52
2022-09-22T22:21:09.958Z,57.76
2022-09-22T22:23:39.190Z,57.39
2022-09-22T22:26:09.189Z,57.62
2022-09-22T22:28:36.523Z,57.96
2022-09-22T22:31:05.517Z,58.09
2022-09-22T22:33:33.795Z,58.01
2022-09-22T22:36:01.574Z,57.84
2022-09-22T22:38:31.213Z,58.22
2022-09-22T22:41:02.153Z,57.91
2022-09-22T22:43:29.058Z,58.76
2022-09-22T22:45:56.000Z,58.36
2022-09-22T22:48:22.774Z,58.49
2022-09-22T22:50:49.343Z,58.17
2022-09-22T22:53:16.205Z,58.32
2022-09-22T22:55:52.575Z,58.36
2022-09-22T22:58:19.339Z,58.38
2022-09-22T23:00:46.015Z,58.64
2022-09-22T23:03:12.611Z,58.57
2022-09-22T23:05:43.090Z,58.67
2022-09-22T23:08:10.066Z,58.90
2022-09-22T23:10:37.153Z,58.69
2022-09-22T23:13:04.170Z,58.89
2022-09-22T23:15:30.850Z,59.03
2022-09-22T23:17:58.623Z,58.88
2022-09-22T23:20:26.063Z,58.95
2022-09-22T23:22:52.833Z,59.32
2022-09-22T23:25:19.431Z,59.51
2022-09-22T23:27:48.544Z,59.38
2022-09-22T23:30:16.625Z,59.51
2022-09-22T23:32:43.880Z,59.25
2022-09-22T23:35:10.729Z,59.61
2022-09-22T23:37:37.404Z,59.33
2022-09-22T23:40:04.679Z,59.78
2022-09-22T23:42:31.349Z,59.67
2022-09-22T23:44:57.919Z,59.47
2022-09-22T23:47:24.604Z,60.13
2022-09-22T23:49:51.198Z,60.04
2022-09-22T23:52:17.846Z,59.75
2022-09-22T23:54:44.854Z,60.30
2022-09-22T23:57:11.903Z,60.13
2022-09-22T23:59:38.464Z,60.43
